Time;durP1;ratioP1;P1;durP2;ratioP2;P2;SDS_P1;SDS_P2;PMS_P1;PMS_P2;Temp;Humidity;BMP_temperature;BMP_pressure;BME280_temperature;BME280_humidity;BME280_pressure;Samples;Min_cycle;Max_cycle;Signal;HPM_P1;HPM_P2
2024/01/04 00:00:12;;;;;;;2.47;0.90;;;11.30;99.90;;;;;;5050792;28;20201;-61
2024/01/04 00:02:40;;;;;;;3.03;0.60;;;11.30;99.90;;;;;;5050418;28;20255;-61
2024/01/04 00:05:07;;;;;;;2.20;0.70;;;11.30;99.90;;;;;;5050639;28;20198;-60
2024/01/04 00:07:34;;;;;;;1.77;0.43;;;11.20;99.90;;;;;;5050668;28;20205;-61
2024/01/04 00:10:01;;;;;;;2.57;0.57;;;11.20;99.90;;;;;;5051184;28;20220;-60
2024/01/04 00:12:27;;;;;;;3.20;0.57;;;11.20;99.90;;;;;;5050408;28;20201;-62
2024/01/04 00:14:54;;;;;;;4.23;0.70;;;11.20;99.90;;;;;;5050464;28;20208;-61
2024/01/04 00:17:21;;;;;;;1.33;0.30;;;11.20;99.90;;;;;;5050809;28;20209;-60
2024/01/04 00:19:49;;;;;;;1.10;0.50;;;11.30;99.90;;;;;;5050728;28;20216;-61
2024/01/04 00:22:16;;;;;;;0.60;0.47;;;11.30;99.90;;;;;;5050232;28;20267;-62
2024/01/04 00:24:43;;;;;;;1.40;0.50;;;11.20;99.90;;;;;;5050445;28;20206;-61
2024/01/04 00:27:09;;;;;;;1.90;0.60;;;11.10;99.90;;;;;;5050418;28;20236;-61
2024/01/04 00:29:36;;;;;;;1.77;0.70;;;11.10;99.90;;;;;;5050587;28;20205;-62
2024/01/04 00:32:03;;;;;;;0.70;0.50;;;11.00;99.90;;;;;;5050460;28;20202;-62
2024/01/04 00:34:29;;;;;;;0.77;0.40;;;11.00;99.90;;;;;;5050227;28;20695;-61
2024/01/04 00:36:58;;;;;;;3.37;0.73;;;11.00;99.90;;;;;;5050426;28;20703;-61
2024/01/04 00:39:25;;;;;;;1.30;0.60;;;10.90;99.90;;;;;;5050397;28;20198;-61
2024/01/04 00:41:53;;;;;;;2.23;0.67;;;10.90;99.90;;;;;;5050038;28;20619;-61
2024/01/04 00:44:19;;;;;;;4.13;0.60;;;10.80;99.90;;;;;;5050608;28;20206;-61
2024/01/04 00:46:46;;;;;;;2.53;0.57;;;10.70;99.90;;;;;;5050903;28;20217;-61
2024/01/04 00:49:13;;;;;;;4.63;0.80;;;10.60;99.90;;;;;;5054059;28;20212;-62
2024/01/04 00:51:41;;;;;;;2.03;0.70;;;10.60;99.90;;;;;;5054006;28;20209;-62
2024/01/04 00:54:09;;;;;;;1.17;0.60;;;10.60;99.90;;;;;;5053686;28;20238;-62
2024/01/04 00:56:38;;;;;;;3.83;0.90;;;10.60;99.90;;;;;;5053678;28;20213;-62
2024/01/04 00:59:05;;;;;;;2.50;1.30;;;10.60;99.90;;;;;;5054124;28;20235;-62
2024/01/04 01:01:33;;;;;;;2.47;0.70;;;10.60;99.90;;;;;;5053647;28;20210;-62
2024/01/04 01:03:59;;;;;;;3.30;0.83;;;10.50;99.90;;;;;;5053493;28;20683;-62
2024/01/04 01:06:26;;;;;;;2.53;0.80;;;10.60;99.90;;;;;;5053597;28;20234;-62
2024/01/04 01:08:53;;;;;;;3.47;0.70;;;10.60;99.90;;;;;;5053748;28;20201;-62
2024/01/04 01:11:21;;;;;;;2.53;0.83;;;10.60;99.90;;;;;;5053514;28;20213;-62
2024/01/04 01:13:47;;;;;;;3.43;0.93;;;10.50;99.90;;;;;;5053462;28;20202;-62
2024/01/04 01:16:15;;;;;;;2.77;0.63;;;10.50;99.90;;;;;;5053529;28;20221;-61
2024/01/04 01:18:42;;;;;;;1.53;0.70;;;10.50;99.90;;;;;;5053601;28;20214;-62
2024/01/04 01:21:08;;;;;;;1.50;0.70;;;10.60;99.90;;;;;;5053508;28;20201;-62
2024/01/04 01:23:35;;;;;;;1.73;0.67;;;10.50;99.90;;;;;;5053018;28;20248;-62
2024/01/04 01:26:02;;;;;;;1.43;0.60;;;10.50;99.90;;;;;;5053219;28;20332;-62
2024/01/04 01:28:30;;;;;;;3.43;0.80;;;10.60;99.90;;;;;;5053683;28;20284;-62
2024/01/04 01:30:57;;;;;;;2.20;0.80;;;10.50;99.90;;;;;;5053333;28;20237;-62
2024/01/04 01:33:24;;;;;;;2.10;0.60;;;10.40;99.90;;;;;;5053211;28;20226;-62
2024/01/04 01:35:51;;;;;;;1.57;0.60;;;10.40;99.90;;;;;;5036459;28;20604;-62
2024/01/04 01:38:18;;;;;;;2.60;0.60;;;10.30;99.90;;;;;;5053091;28;20231;-62
2024/01/04 01:40:44;;;;;;;2.57;1.03;;;10.30;99.90;;;;;;5053154;28;20267;-61
2024/01/04 01:43:12;;;;;;;4.10;0.90;;;10.30;99.90;;;;;;5053011;28;20198;-62
2024/01/04 01:45:40;;;;;;;1.17;0.40;;;10.30;99.90;;;;;;5052899;28;20225;-60
2024/01/04 01:48:08;;;;;;;1.37;0.37;;;10.30;99.90;;;;;;5053000;28;20204;-62
2024/01/04 01:50:35;;;;;;;1.23;0.70;;;10.40;99.90;;;;;;5052938;28;20248;-62
2024/01/04 01:53:02;;;;;;;2.17;0.57;;;10.50;99.90;;;;;;5052867;28;20206;-61
2024/01/04 01:55:29;;;;;;;1.87;0.80;;;10.50;99.90;;;;;;5052755;28;20229;-61
2024/01/04 01:57:56;;;;;;;1.73;0.43;;;10.50;99.90;;;;;;5052121;28;20198;-62
2024/01/04 02:00:23;;;;;;;4.97;1.10;;;10.40;99.90;;;;;;5052460;28;20216;-62
2024/01/04 02:02:51;;;;;;;2.10;0.63;;;10.40;99.90;;;;;;5052556;28;20202;-62
2024/01/04 02:05:18;;;;;;;2.10;0.67;;;10.50;99.90;;;;;;5052444;28;20221;-62
2024/01/04 02:07:45;;;;;;;1.90;0.87;;;10.50;99.90;;;;;;5052734;28;20301;-62
2024/01/04 02:10:13;;;;;;;2.17;0.70;;;10.50;99.90;;;;;;5052802;28;20297;-62
2024/01/04 02:12:40;;;;;;;3.07;0.77;;;10.50;99.90;;;;;;5052511;28;20217;-61
2024/01/04 02:15:07;;;;;;;1.40;0.57;;;10.50;99.90;;;;;;5052507;28;20579;-62
2024/01/04 02:17:34;;;;;;;1.33;0.50;;;10.50;99.90;;;;;;5052534;28;20197;-61
2024/01/04 02:20:03;;;;;;;0.90;0.30;;;10.40;99.90;;;;;;5052647;28;20216;-60
2024/01/04 02:22:30;;;;;;;0.50;0.27;;;10.30;99.90;;;;;;5052659;28;20216;-61
2024/01/04 02:24:58;;;;;;;1.03;0.33;;;10.30;99.90;;;;;;5052603;28;20201;-62
2024/01/04 02:27:24;;;;;;;0.57;0.17;;;10.20;99.90;;;;;;5052450;28;20230;-62
2024/01/04 02:29:51;;;;;;;0.90;0.40;;;10.30;99.90;;;;;;5052523;28;20205;-62
2024/01/04 02:32:18;;;;;;;2.43;0.40;;;10.30;99.90;;;;;;5051859;28;20202;-61
2024/01/04 02:34:44;;;;;;;0.80;0.27;;;10.30;99.90;;;;;;5052200;28;20216;-62
2024/01/04 02:37:11;;;;;;;0.90;0.37;;;10.30;99.90;;;;;;5052546;28;20229;-61
2024/01/04 02:39:38;;;;;;;0.27;0.20;;;10.30;99.90;;;;;;5052186;28;20208;-61
2024/01/04 02:42:06;;;;;;;0.40;0.20;;;10.30;99.90;;;;;;5052076;28;20339;-62
2024/01/04 02:44:32;;;;;;;0.90;0.20;;;10.30;99.90;;;;;;5051848;28;20260;-61
2024/01/04 02:46:59;;;;;;;0.67;0.07;;;10.30;99.90;;;;;;5052004;28;20607;-62
2024/01/04 02:49:26;;;;;;;0.77;0.40;;;10.30;99.90;;;;;;5052652;28;20205;-61
2024/01/04 02:51:52;;;;;;;0.60;0.30;;;10.30;99.90;;;;;;5051688;28;20205;-61
2024/01/04 02:54:19;;;;;;;2.60;0.30;;;10.40;99.90;;;;;;5052115;28;20197;-62
2024/01/04 02:56:46;;;;;;;0.63;0.30;;;10.40;99.90;;;;;;5051778;28;20217;-62
2024/01/04 02:59:14;;;;;;;1.37;0.30;;;10.50;99.90;;;;;;5051640;28;20201;-62
2024/01/04 03:01:43;;;;;;;1.43;0.30;;;10.50;99.90;;;;;;5051262;28;20263;-62
2024/01/04 03:04:10;;;;;;;0.20;0.00;;;10.50;99.90;;;;;;5051466;28;20583;-62
2024/01/04 03:06:37;;;;;;;0.40;0.10;;;10.50;99.90;;;;;;5051478;28;20232;-62
2024/01/04 03:09:04;;;;;;;0.63;0.20;;;10.50;99.90;;;;;;5051311;28;20622;-62
2024/01/04 03:11:30;;;;;;;0.30;0.10;;;10.50;99.90;;;;;;5051116;28;20212;-62
2024/01/04 03:13:57;;;;;;;0.00;0.00;;;10.50;99.90;;;;;;5051172;28;20202;-62
2024/01/04 03:16:25;;;;;;;0.30;0.20;;;10.50;99.90;;;;;;5051210;28;20711;-63
2024/01/04 03:18:52;;;;;;;0.50;0.10;;;10.50;99.90;;;;;;5051103;28;20565;-62
2024/01/04 03:21:18;;;;;;;0.73;0.30;;;10.40;99.90;;;;;;5051224;28;20627;-61
2024/01/04 03:23:45;;;;;;;0.10;0.10;;;10.30;99.90;;;;;;5051200;28;20232;-62
2024/01/04 03:26:13;;;;;;;0.30;0.00;;;10.40;99.90;;;;;;5051229;28;20305;-62
2024/01/04 03:28:40;;;;;;;0.77;0.20;;;10.40;99.90;;;;;;5051230;28;20213;-62
2024/01/04 03:31:06;;;;;;;0.50;0.13;;;10.40;99.90;;;;;;5051333;28;20198;-61
2024/01/04 03:33:34;;;;;;;1.60;0.17;;;10.40;99.90;;;;;;5050941;28;20198;-62
2024/01/04 03:36:01;;;;;;;0.73;0.23;;;10.40;99.90;;;;;;5051055;28;20233;-62
2024/01/04 03:38:28;;;;;;;0.83;0.20;;;10.40;99.90;;;;;;5051115;28;20201;-62
2024/01/04 03:40:54;;;;;;;0.70;0.27;;;10.40;99.90;;;;;;5050970;28;20213;-62
2024/01/04 03:43:21;;;;;;;0.83;0.50;;;10.40;99.90;;;;;;5050743;28;20210;-62
2024/01/04 03:45:48;;;;;;;1.37;0.30;;;10.30;99.90;;;;;;5050888;28;20275;-62
2024/01/04 03:48:14;;;;;;;0.63;0.20;;;10.30;99.90;;;;;;5050933;28;20263;-62
2024/01/04 03:50:42;;;;;;;0.33;0.13;;;10.30;99.90;;;;;;5051179;28;20209;-62
2024/01/04 03:53:09;;;;;;;0.70;0.30;;;10.20;99.90;;;;;;5050791;28;20206;-60
2024/01/04 03:55:35;;;;;;;0.73;0.20;;;10.10;99.90;;;;;;5050774;28;20240;-62
2024/01/04 03:58:02;;;;;;;0.43;0.10;;;10.10;99.90;;;;;;5050841;28;20686;-62
2024/01/04 04:00:29;;;;;;;0.27;0.10;;;10.10;99.90;;;;;;5051010;28;20293;-62
2024/01/04 04:02:55;;;;;;;0.60;0.30;;;10.10;99.90;;;;;;5034453;28;20229;-62
2024/01/04 04:05:22;;;;;;;0.63;0.20;;;10.10;99.90;;;;;;5050773;28;20271;-62
2024/01/04 04:07:50;;;;;;;1.87;0.30;;;10.10;99.90;;;;;;5050658;28;20226;-61
2024/01/04 04:10:17;;;;;;;0.10;0.10;;;10.10;99.90;;;;;;5050773;28;20741;-61
2024/01/04 04:12:44;;;;;;;2.90;0.40;;;10.10;99.90;;;;;;5050342;28;20671;-62
2024/01/04 04:15:11;;;;;;;0.43;0.13;;;10.20;99.90;;;;;;5050667;28;20229;-63
2024/01/04 04:17:37;;;;;;;1.37;0.20;;;10.10;99.90;;;;;;5050731;28;20253;-61
2024/01/04 04:20:04;;;;;;;0.97;0.20;;;10.20;99.90;;;;;;5050698;28;20210;-62
2024/01/04 04:22:31;;;;;;;2.23;0.40;;;10.20;99.90;;;;;;5052424;28;20201;-60
2024/01/04 04:24:59;;;;;;;0.53;0.20;;;10.20;99.90;;;;;;5054357;28;20213;-62
2024/01/04 04:27:26;;;;;;;2.17;0.40;;;10.20;99.90;;;;;;5069173;22;20222;-56
2024/01/04 04:29:52;;;;;;;2.80;0.70;;;10.30;99.90;;;;;;5046165;28;20217;-58
2024/01/04 04:32:20;;;;;;;2.07;0.43;;;10.40;99.90;;;;;;5046151;28;20247;-56
2024/01/04 04:34:46;;;;;;;1.17;0.30;;;10.40;99.90;;;;;;5043891;28;20584;-56
2024/01/04 04:37:14;;;;;;;0.60;0.30;;;10.50;99.90;;;;;;5051203;28;20217;-56
2024/01/04 04:39:41;;;;;;;1.70;0.43;;;10.40;99.90;;;;;;5054429;28;20292;-56
2024/01/04 04:42:09;;;;;;;1.00;0.33;;;10.40;99.90;;;;;;5054263;28;20202;-56
2024/01/04 04:44:36;;;;;;;1.70;0.40;;;10.30;99.90;;;;;;5053889;28;20442;-57
2024/01/04 04:47:03;;;;;;;2.33;0.90;;;10.30;99.90;;;;;;5054353;28;20234;-56
2024/01/04 04:49:29;;;;;;;1.60;0.70;;;10.40;99.90;;;;;;5054095;28;20285;-57
2024/01/04 04:51:56;;;;;;;2.70;0.70;;;10.50;99.90;;;;;;5053601;28;20201;-57
2024/01/04 04:54:24;;;;;;;1.20;0.40;;;10.60;99.90;;;;;;5054041;28;20205;-57
2024/01/04 04:56:51;;;;;;;1.33;0.60;;;10.60;99.90;;;;;;5053676;28;20222;-57
2024/01/04 04:59:19;;;;;;;2.40;0.80;;;10.70;99.90;;;;;;5053955;28;20209;-57
2024/01/04 05:01:46;;;;;;;4.67;0.77;;;10.70;99.90;;;;;;5053681;28;20209;-57
2024/01/04 05:04:12;;;;;;;3.57;0.60;;;10.70;99.90;;;;;;5053532;28;20202;-56
2024/01/04 05:06:39;;;;;;;1.50;0.60;;;10.80;99.90;;;;;;5053593;28;20312;-58
2024/01/04 05:09:07;;;;;;;2.60;0.80;;;10.80;99.90;;;;;;5053766;28;20632;-58
2024/01/04 05:11:33;;;;;;;2.00;0.67;;;10.80;99.90;;;;;;5053736;28;20208;-58
2024/01/04 05:14:02;;;;;;;2.77;0.77;;;10.80;99.90;;;;;;5053305;28;20209;-58
2024/01/04 05:16:30;;;;;;;1.47;0.80;;;10.70;99.90;;;;;;5053515;28;20217;-56
2024/01/04 05:18:56;;;;;;;2.33;0.67;;;10.70;99.90;;;;;;5053341;28;20608;-56
2024/01/04 05:21:23;;;;;;;1.80;0.80;;;10.80;99.90;;;;;;5053222;28;20570;-58
2024/01/04 05:23:50;;;;;;;0.70;0.50;;;10.80;99.90;;;;;;5053039;28;20737;-58
2024/01/04 05:26:21;;;;;;;1.77;0.60;;;10.80;99.90;;;;;;5053085;28;20233;-58
2024/01/04 05:28:48;;;;;;;2.80;0.67;;;10.80;99.90;;;;;;5053143;28;20222;-57
2024/01/04 05:31:17;;;;;;;2.20;0.70;;;10.90;99.90;;;;;;5053395;28;20202;-57
2024/01/04 05:33:45;;;;;;;3.70;0.83;;;10.90;99.90;;;;;;5052462;28;20233;-58
2024/01/04 05:36:12;;;;;;;2.83;0.60;;;10.90;99.90;;;;;;5053317;28;20227;-57
2024/01/04 05:38:39;;;;;;;1.47;0.60;;;10.80;99.90;;;;;;5053231;28;20205;-56
2024/01/04 05:41:06;;;;;;;4.03;0.90;;;10.90;99.90;;;;;;5053227;28;20216;-56
2024/01/04 05:43:33;;;;;;;2.40;0.90;;;10.80;99.90;;;;;;5053495;28;20209;-56
2024/01/04 05:46:00;;;;;;;1.37;0.50;;;10.70;99.90;;;;;;5037083;28;20244;-57
2024/01/04 05:48:27;;;;;;;2.80;0.70;;;10.60;99.90;;;;;;5053160;28;20312;-57
2024/01/04 05:50:55;;;;;;;3.03;0.67;;;10.50;99.90;;;;;;5052782;28;20269;-56
2024/01/04 05:53:21;;;;;;;2.50;0.60;;;10.50;99.90;;;;;;5052994;28;20222;-56
2024/01/04 05:55:48;;;;;;;3.13;0.93;;;10.50;99.90;;;;;;5052586;28;20221;-57
2024/01/04 05:58:15;;;;;;;2.73;1.00;;;10.50;99.90;;;;;;5052975;28;20221;-57
2024/01/04 06:00:41;;;;;;;4.50;0.90;;;10.60;99.90;;;;;;5052433;28;20210;-57
2024/01/04 06:03:08;;;;;;;4.03;1.07;;;10.60;99.90;;;;;;5052264;28;20214;-56
2024/01/04 06:05:35;;;;;;;2.30;0.80;;;10.60;99.90;;;;;;5052457;28;20222;-58
2024/01/04 06:08:03;;;;;;;1.00;0.83;;;10.70;99.90;;;;;;5052703;28;20260;-56
2024/01/04 06:10:29;;;;;;;2.27;0.70;;;10.70;99.90;;;;;;5052571;28;20292;-55
2024/01/04 06:12:56;;;;;;;1.50;0.67;;;10.70;99.90;;;;;;5051815;28;20753;-57
2024/01/04 06:15:23;;;;;;;2.30;0.80;;;10.80;99.90;;;;;;5052341;28;20241;-57
2024/01/04 06:17:50;;;;;;;3.63;0.83;;;10.80;99.90;;;;;;5052330;28;20256;-56
2024/01/04 06:20:16;;;;;;;2.37;0.87;;;10.80;99.90;;;;;;5052708;28;20209;-57
2024/01/04 06:22:43;;;;;;;1.07;0.47;;;10.80;99.90;;;;;;5052399;28;20240;-57
2024/01/04 06:25:11;;;;;;;1.87;0.60;;;10.90;99.90;;;;;;5052095;28;20209;-57
2024/01/04 06:27:38;;;;;;;2.03;0.80;;;10.90;99.90;;;;;;5051675;28;20244;-56
2024/01/04 06:30:06;;;;;;;2.97;1.27;;;10.80;99.90;;;;;;5052188;28;20201;-57
2024/01/04 06:32:33;;;;;;;3.77;0.80;;;10.80;99.90;;;;;;5051050;28;20586;-57
2024/01/04 06:34:59;;;;;;;2.63;1.10;;;10.80;99.90;;;;;;5051901;28;20205;-57
2024/01/04 06:37:26;;;;;;;3.27;0.70;;;10.70;99.90;;;;;;5051992;28;20230;-58
2024/01/04 06:39:53;;;;;;;4.27;0.83;;;10.80;99.90;;;;;;5051807;28;20201;-58
2024/01/04 06:42:21;;;;;;;3.17;0.90;;;10.70;99.90;;;;;;5051492;28;20612;-59
2024/01/04 06:44:48;;;;;;;3.07;0.97;;;10.70;99.90;;;;;;5050789;28;20654;-57
2024/01/04 06:47:15;;;;;;;4.83;0.70;;;10.70;99.90;;;;;;5051767;28;20217;-55
2024/01/04 06:49:42;;;;;;;4.77;1.00;;;10.70;99.90;;;;;;5051754;28;20588;-57
2024/01/04 06:52:09;;;;;;;1.97;0.70;;;10.60;99.90;;;;;;5051865;28;20201;-56
2024/01/04 06:54:35;;;;;;;2.57;1.00;;;10.60;99.90;;;;;;5051534;28;20198;-57
2024/01/04 06:57:06;;;;;;;3.33;0.90;;;10.60;99.90;;;;;;5035391;28;20222;-57
2024/01/04 06:59:34;;;;;;;4.07;1.07;;;10.70;99.90;;;;;;5051632;28;20660;-56
2024/01/04 07:02:00;;;;;;;2.67;0.87;;;10.70;99.90;;;;;;5051231;28;20209;-57
2024/01/04 07:04:27;;;;;;;2.77;0.60;;;10.70;99.90;;;;;;5051398;28;20205;-58
2024/01/04 07:06:54;;;;;;;1.83;0.63;;;10.70;99.90;;;;;;5051283;28;20233;-57
2024/01/04 07:09:20;;;;;;;2.17;0.70;;;10.70;99.90;;;;;;5051270;28;20221;-57
2024/01/04 07:11:47;;;;;;;2.30;0.70;;;10.60;99.90;;;;;;5051204;28;20210;-58
2024/01/04 07:14:14;;;;;;;1.03;0.57;;;10.60;99.90;;;;;;5051480;28;20204;-57
2024/01/04 07:16:46;;;;;;;3.37;1.03;;;10.70;99.90;;;;;;5051118;28;20229;-58
2024/01/04 07:19:13;;;;;;;3.93;0.60;;;10.80;99.90;;;;;;5051247;28;20260;-58
2024/01/04 07:21:40;;;;;;;1.90;0.60;;;10.80;99.90;;;;;;5051146;28;20229;-57
2024/01/04 07:24:07;;;;;;;2.67;0.90;;;10.80;99.90;;;;;;5050759;28;20205;-58
2024/01/04 07:26:33;;;;;;;2.30;1.10;;;10.80;99.90;;;;;;5050881;28;20788;-58
2024/01/04 07:29:00;;;;;;;2.33;0.80;;;10.80;99.90;;;;;;5051006;28;20217;-58
2024/01/04 07:31:27;;;;;;;2.23;0.80;;;10.80;99.90;;;;;;5050992;28;20202;-58
2024/01/04 07:33:55;;;;;;;2.47;0.77;;;10.70;99.90;;;;;;5050668;28;20204;-57
2024/01/04 07:36:21;;;;;;;1.37;0.70;;;10.70;99.90;;;;;;5050918;28;20217;-57
2024/01/04 07:38:48;;;;;;;2.67;0.90;;;10.80;99.90;;;;;;5050980;28;20217;-57
2024/01/04 07:41:15;;;;;;;2.80;0.77;;;10.80;99.90;;;;;;5050935;28;20209;-56
2024/01/04 07:43:42;;;;;;;3.47;0.90;;;10.80;99.90;;;;;;5050679;28;20293;-57
2024/01/04 07:46:08;;;;;;;3.60;0.83;;;10.80;99.90;;;;;;5050716;28;20229;-57
2024/01/04 07:48:35;;;;;;;2.80;0.90;;;10.90;99.90;;;;;;5050935;28;20476;-57
2024/01/04 07:51:04;;;;;;;2.87;0.90;;;10.90;99.90;;;;;;5050661;28;20206;-56
2024/01/04 07:53:30;;;;;;;2.50;1.30;;;11.00;99.90;;;;;;5050339;28;20197;-57
2024/01/04 07:55:57;;;;;;;2.33;0.80;;;11.00;99.90;;;;;;5051673;28;20229;-58
2024/01/04 07:58:24;;;;;;;2.67;1.40;;;11.00;99.90;;;;;;5055019;28;20197;-57
2024/01/04 08:00:51;;;;;;;3.47;0.70;;;11.10;99.90;;;;;;5054564;28;20672;-58
2024/01/04 08:03:17;;;;;;;1.77;0.80;;;11.00;99.90;;;;;;5054676;28;20682;-58
2024/01/04 08:05:44;;;;;;;2.10;1.10;;;11.00;99.90;;;;;;5054444;28;20229;-57
2024/01/04 08:08:12;;;;;;;3.10;1.57;;;10.90;99.90;;;;;;5054876;28;20221;-53
2024/01/04 08:10:39;;;;;;;3.67;1.20;;;11.00;99.90;;;;;;5054701;28;20205;-54
2024/01/04 08:13:06;;;;;;;3.63;1.90;;;10.90;99.90;;;;;;5054528;28;20206;-53
2024/01/04 08:15:33;;;;;;;3.37;1.80;;;10.90;99.90;;;;;;5054639;28;20225;-54
2024/01/04 08:18:00;;;;;;;3.10;1.20;;;10.90;99.90;;;;;;5054614;28;20229;-53
2024/01/04 08:20:27;;;;;;;7.27;2.40;;;10.90;99.90;;;;;;5054624;28;20205;-54
2024/01/04 08:22:55;;;;;;;11.73;3.93;;;11.00;99.90;;;;;;5054321;28;20218;-53
2024/01/04 08:25:23;;;;;;;7.00;2.93;;;11.10;99.90;;;;;;5054248;28;20727;-53
2024/01/04 08:27:49;;;;;;;7.00;2.70;;;11.30;99.90;;;;;;5054602;28;20205;-54
2024/01/04 08:30:16;;;;;;;5.83;2.07;;;11.50;99.90;;;;;;5054565;28;20197;-56
2024/01/04 08:32:43;;;;;;;15.77;5.70;;;11.80;99.90;;;;;;5054029;28;20279;-53
2024/01/04 08:35:10;;;;;;;12.53;4.60;;;12.00;99.90;;;;;;5054186;28;20667;-54
2024/01/04 08:37:36;;;;;;;3.20;1.40;;;12.20;99.90;;;;;;5054285;28;20228;-57
2024/01/04 08:40:04;;;;;;;3.97;1.30;;;12.40;99.90;;;;;;5054207;28;20202;-53
2024/01/04 08:42:32;;;;;;;3.57;1.00;;;12.50;99.90;;;;;;5053787;28;20693;-54
2024/01/04 08:44:59;;;;;;;3.90;1.27;;;12.50;99.90;;;;;;5053986;28;20205;-55
2024/01/04 08:47:26;;;;;;;4.53;2.13;;;12.50;99.90;;;;;;5053931;28;20312;-53
2024/01/04 08:49:53;;;;;;;7.23;3.77;;;12.50;99.90;;;;;;5053924;28;20229;-53
2024/01/04 08:52:19;;;;;;;3.53;1.47;;;12.50;99.90;;;;;;5053925;28;20228;-54
2024/01/04 08:54:46;;;;;;;2.53;0.93;;;12.60;99.90;;;;;;5053878;28;20205;-54
2024/01/04 08:57:14;;;;;;;4.30;1.03;;;12.80;99.90;;;;;;5054064;28;20228;-57
2024/01/04 08:59:43;;;;;;;3.43;1.10;;;13.00;99.90;;;;;;5054118;28;20293;-58
2024/01/04 09:02:09;;;;;;;3.47;1.30;;;13.10;99.90;;;;;;5053980;28;20205;-55
2024/01/04 09:04:36;;;;;;;4.53;1.50;;;13.10;99.90;;;;;;5054232;28;20201;-54
2024/01/04 09:07:03;;;;;;;6.40;2.10;;;13.00;99.90;;;;;;5053528;28;20644;-56
2024/01/04 09:09:30;;;;;;;3.67;1.50;;;12.90;99.90;;;;;;5053243;28;20213;-53
2024/01/04 09:11:56;;;;;;;3.30;1.27;;;12.90;99.90;;;;;;5053545;28;20660;-53
2024/01/04 09:14:23;;;;;;;7.10;1.20;;;12.90;99.90;;;;;;5053631;28;20201;-55
2024/01/04 09:16:51;;;;;;;4.30;1.20;;;12.80;99.90;;;;;;5053612;28;20225;-56
2024/01/04 09:19:18;;;;;;;4.77;2.03;;;12.80;99.90;;;;;;5053576;28;20725;-56
2024/01/04 09:21:49;;;;;;;12.13;5.90;;;12.80;99.90;;;;;;5053598;28;20237;-57
2024/01/04 09:24:17;;;;;;;3.10;1.00;;;12.70;99.90;;;;;;5053530;28;20255;-56
2024/01/04 09:26:45;;;;;;;4.07;1.30;;;12.60;99.90;;;;;;5053365;28;20225;-55
2024/01/04 09:29:27;;;;;;;3.37;1.10;;;12.60;99.90;;;;;;5088805;27;20550;-55
2024/01/04 09:31:55;;;;;;;3.47;1.17;;;12.60;99.90;;;;;;5088641;28;20705;-56
2024/01/04 09:34:24;;;;;;;3.00;1.20;;;12.70;99.90;;;;;;5088654;28;20211;-57
2024/01/04 09:36:50;;;;;;;3.97;1.07;;;12.60;99.90;;;;;;5074887;28;20308;-53
2024/01/04 09:39:18;;;;;;;3.90;1.07;;;12.70;99.90;;;;;;5068195;28;20571;-54
2024/01/04 09:41:46;;;;;;;3.13;1.10;;;12.70;99.90;;;;;;5068087;28;20701;-57
2024/01/04 09:44:14;;;;;;;4.80;1.20;;;12.70;99.90;;;;;;5068238;28;20212;-56
2024/01/04 09:46:43;;;;;;;4.07;1.17;;;12.80;99.90;;;;;;5067953;28;20250;-56
2024/01/04 09:49:13;;;;;;;2.63;1.00;;;12.90;99.90;;;;;;5060134;28;20225;-56
2024/01/04 09:51:41;;;;;;;4.63;1.70;;;13.00;99.90;;;;;;5067933;28;20414;-57
2024/01/04 09:54:09;;;;;;;6.83;2.37;;;13.10;99.90;;;;;;5067574;28;20217;-56
2024/01/04 09:56:40;;;;;;;5.83;1.50;;;13.00;99.90;;;;;;5067793;28;20775;-56
2024/01/04 09:59:08;;;;;;;6.07;1.33;;;13.00;99.90;;;;;;5059716;28;20205;-56
2024/01/04 10:01:36;;;;;;;6.27;1.70;;;13.00;99.90;;;;;;5067598;28;20201;-57
2024/01/04 10:04:08;;;;;;;4.57;1.17;;;13.00;99.90;;;;;;5067212;28;20201;-58
2024/01/04 10:06:37;;;;;;;3.87;1.43;;;13.10;99.90;;;;;;5067550;28;20317;-55
2024/01/04 10:09:15;;;;;;;4.60;1.13;;;13.00;99.90;;;;;;5067592;28;20218;-55
2024/01/04 10:11:56;;;;;;;3.50;1.40;;;12.80;99.90;;;;;;5067480;28;20342;-58
2024/01/04 10:14:23;;;;;;;3.57;0.90;;;12.70;99.90;;;;;;5068002;28;20270;-58
2024/01/04 10:16:50;;;;;;;2.97;0.80;;;12.70;99.90;;;;;;5067137;28;20225;-58
2024/01/04 10:19:19;;;;;;;1.70;0.90;;;12.70;99.90;;;;;;5067533;28;20228;-57
2024/01/04 10:21:47;;;;;;;3.47;1.00;;;12.60;99.90;;;;;;5067469;28;20205;-55
2024/01/04 10:24:15;;;;;;;3.17;1.07;;;12.50;99.90;;;;;;5067406;28;20205;-58
2024/01/04 10:26:43;;;;;;;3.73;1.27;;;12.40;99.90;;;;;;5067391;28;20592;-58
2024/01/04 10:29:10;;;;;;;3.83;1.30;;;12.40;99.90;;;;;;5059488;28;20221;-55
2024/01/04 10:31:36;;;;;;;3.37;1.17;;;12.30;99.90;;;;;;5066931;28;20223;-56
2024/01/04 10:34:03;;;;;;;3.37;1.10;;;12.30;99.90;;;;;;5066592;28;20746;-55
2024/01/04 10:36:32;;;;;;;4.27;1.20;;;12.30;99.90;;;;;;5066820;28;20225;-55
2024/01/04 10:39:00;;;;;;;4.03;1.00;;;12.30;99.90;;;;;;5063453;28;20694;-55
2024/01/04 10:41:29;;;;;;;4.43;1.60;;;12.30;99.90;;;;;;5053790;28;20209;-55
2024/01/04 10:44:06;;;;;;;3.43;1.40;;;12.10;99.90;;;;;;5053516;28;20259;-55
2024/01/04 10:46:35;;;;;;;3.47;1.43;;;12.00;99.90;;;;;;5053826;28;20319;-56
2024/01/04 10:49:02;;;;;;;4.10;0.93;;;11.90;99.90;;;;;;5053850;28;20233;-54
2024/01/04 10:51:32;;;;;;;3.43;1.60;;;11.70;99.90;;;;;;5053754;28;20555;-56
2024/01/04 10:54:00;;;;;;;5.97;2.07;;;11.40;99.90;;;;;;5053097;28;20255;-55
2024/01/04 10:56:28;;;;;;;3.43;1.20;;;11.10;99.90;;;;;;5053656;28;20248;-55
2024/01/04 10:58:56;;;;;;;4.17;1.50;;;10.90;99.90;;;;;;5053506;28;20699;-55
2024/01/04 11:01:24;;;;;;;3.23;1.00;;;10.80;99.90;;;;;;5053663;28;20206;-56
2024/01/04 11:03:54;;;;;;;4.17;1.17;;;10.70;99.90;;;;;;5053250;28;20210;-55
2024/01/04 11:06:23;;;;;;;2.23;1.03;;;10.60;99.90;;;;;;5053140;28;20249;-55
2024/01/04 11:08:55;;;;;;;3.33;1.30;;;10.60;99.90;;;;;;5053119;28;20718;-55
2024/01/04 11:11:25;;;;;;;2.00;0.87;;;10.60;99.90;;;;;;5053539;28;20220;-54
2024/01/04 11:13:51;;;;;;;2.20;1.03;;;10.60;99.90;;;;;;5052987;28;20209;-54
2024/01/04 11:16:43;;;;;;;4.73;1.10;;;10.70;99.90;;;;;;5053233;28;20225;-56
2024/01/04 11:19:16;;;;;;;5.70;2.67;;;10.70;99.90;;;;;;5052987;28;20564;-55
2024/01/04 11:22:02;;;;;;;5.67;2.07;;;10.70;99.90;;;;;;5053011;28;20218;-56
2024/01/04 11:24:41;;;;;;;3.20;1.13;;;10.70;99.90;;;;;;5047613;28;20206;-56
2024/01/04 11:27:14;;;;;;;6.47;1.60;;;10.60;99.90;;;;;;5052646;28;20286;-55
2024/01/04 11:29:41;;;;;;;2.53;1.00;;;10.60;99.90;;;;;;5052915;28;20228;-56
2024/01/04 11:32:08;;;;;;;4.10;1.17;;;10.60;99.90;;;;;;5052527;28;20201;-55
2024/01/04 11:34:36;;;;;;;3.40;0.93;;;10.60;99.90;;;;;;5052777;28;20202;-55
2024/01/04 11:37:10;;;;;;;2.70;0.90;;;10.70;99.90;;;;;;5052679;28;20229;-55
2024/01/04 11:40:03;;;;;;;3.40;1.00;;;10.80;99.90;;;;;;5052690;28;20671;-55
2024/01/04 11:42:37;;;;;;;2.10;0.97;;;10.90;99.90;;;;;;5047303;28;20220;-55
2024/01/04 11:45:06;;;;;;;3.83;1.10;;;11.00;99.90;;;;;;5052659;28;20246;-54
2024/01/04 11:47:38;;;;;;;0.73;0.40;;;10.90;99.90;;;;;;5052587;28;20252;-55
2024/01/04 11:50:14;;;;;;;1.63;0.53;;;10.70;99.90;;;;;;5052096;28;21198;-55
2024/01/04 11:52:41;;;;;;;1.20;0.67;;;10.60;99.90;;;;;;5051506;28;20290;-54
2024/01/04 11:55:09;;;;;;;1.97;0.60;;;10.40;99.90;;;;;;5052167;28;20271;-56
2024/01/04 11:57:36;;;;;;;2.13;0.60;;;10.30;99.90;;;;;;5052658;28;20718;-55
2024/01/04 12:00:12;;;;;;;1.27;0.43;;;10.20;99.90;;;;;;5052556;28;20340;-55
2024/01/04 12:02:40;;;;;;;2.83;1.80;;;10.10;99.90;;;;;;5052507;28;20284;-54
2024/01/04 12:05:07;;;;;;;1.53;0.60;;;10.10;99.90;;;;;;5052079;28;20225;-53
2024/01/04 12:07:35;;;;;;;2.47;0.80;;;10.00;99.90;;;;;;5052226;28;20237;-55
2024/01/04 12:10:03;;;;;;;2.03;1.00;;;10.10;99.90;;;;;;5052030;28;20304;-54
2024/01/04 12:12:31;;;;;;;2.23;0.90;;;10.30;99.90;;;;;;5052643;28;20220;-54
2024/01/04 12:14:58;;;;;;;1.63;0.70;;;10.50;99.90;;;;;;5052579;28;20205;-54
2024/01/04 12:17:25;;;;;;;4.17;2.10;;;10.60;99.90;;;;;;5053122;28;20230;-54
2024/01/04 12:19:51;;;;;;;4.33;0.97;;;10.70;99.90;;;;;;5052709;28;20256;-55
2024/01/04 12:22:18;;;;;;;3.43;0.80;;;10.70;99.90;;;;;;5052794;28;20213;-55
2024/01/04 12:24:47;;;;;;;4.10;1.03;;;10.70;99.90;;;;;;5052794;28;20209;-55
2024/01/04 12:27:14;;;;;;;1.57;0.70;;;10.60;99.90;;;;;;5044455;28;20230;-55
2024/01/04 12:29:42;;;;;;;2.27;0.50;;;10.60;99.90;;;;;;5052229;28;20233;-54
2024/01/04 12:32:10;;;;;;;3.17;1.13;;;10.60;99.90;;;;;;5051696;28;20209;-54
2024/01/04 12:34:36;;;;;;;2.77;0.87;;;10.60;99.90;;;;;;5051871;28;20632;-55
2024/01/04 12:37:06;;;;;;;2.80;0.90;;;10.90;99.90;;;;;;5051501;28;20279;-55
2024/01/04 12:39:33;;;;;;;2.00;0.60;;;11.00;99.90;;;;;;5051637;28;20206;-57
2024/01/04 12:42:02;;;;;;;3.13;1.20;;;11.20;99.90;;;;;;5050119;28;20914;-56
2024/01/04 12:44:29;;;;;;;5.07;1.00;;;11.50;99.90;;;;;;5051432;28;20232;-54
2024/01/04 12:47:05;;;;;;;4.90;1.30;;;11.80;99.90;;;;;;5051364;28;20283;-56